Green Springs, Ohio
Current Conditions -  °F | °C
As of 11:53 AM on Friday 24 Oct 2014 (Local Time) from KPCW Reporting Station
Few Clouds Few Clouds  
Wind Chill: 58°   Ceiling: Unl
Heat Index: 58°   Visibility: 10mi
Dew Point: 45°   Wind: 8mph
Humidity: 62%   Direction: 240°WSW
Pressure: 30.08"   Gusts: NA
Location:  41.26°N, 83.05°W
Report Text: KPCW 241553Z AUTO 24007KT 10SM FEW065 14/07 A3008 RMK AO2 T01440072 $
Loading
Personal Weather Stations






























Interactive Weather Map
Tropical Storm Tracking
New forecast layout! Learn more

10-Day Weather Forecast

Advertisements
Track Severe Weather on mobile